Terminal Aerodrome Forecast
Issued by NWS Charleston, SC

Home | Current Version | Previous Version | Text Only | Print | Product List | Glossary On
Versions: 1 2 3 4 5 6 7 8 9 10 11 12 13
000
FTUS42 KCHS 012331
TAFCHS
TAF
KCHS 012331Z 0200/0224 18008KT P6SM SCT035 BKN050
     FM020700 20012G18KT P6SM BKN035
     FM021000 21016G23KT 5SM -RA BR BKN025
     FM021200 23018G25KT 4SM -RA BR OVC015
     FM021500 26020G28KT 6SM -RA OVC025
     FM021700 29021G29KT P6SM SCT060 BKN100
     FM022200 30013KT P6SM SKC=

USA.gov is the U.S. government's official web portal to all federal, state and local government web resources and services.